Lewis, Kansas
Current Conditions -  °F | °C
As of 1:35 PM on Thursday 23 Oct 2014 (Local Time) from KPTT Reporting Station
Broken Clouds Broken Clouds  
Wind Chill: 70°   Ceiling: 2200
Heat Index: 70°   Visibility: 10mi
Dew Point: 59°   Wind: 0mph
Humidity: 68%   Direction: NA
Pressure: 30.09"   Gusts: NA
Location:  37.94°N, 99.25°W
Report Text: KPTT 231835Z AUTO 00000KT 10SM BKN022 BKN029 21/15 A3009 RMK AO2
Loading
Personal Weather Stations






























Interactive Weather Map
Tropical Storm Tracking
New forecast layout! Learn more

10-Day Weather Forecast

Advertisements
Track Severe Weather on mobile